Archival Weather

Pocono Mountains Rgnl

Mount Pocono, Pennsylvania (KMPO)

Report from: Tuesday, May 21, 2024 3:53 PM EDT
Current time: Thursday, July 18, 2024 10:44 PM EDT

Current weather – Weather history – Daily summaries
Weather forecast

Temperature26.1°C (79.0°F)
Dew point12.8°C (55.0°F)
Winds 9 kts (4.6 m/s, 10.4 mph) South-Southwest (210°)
Visibility10 mi. (16.1 km)
Clouds Few clouds 6,000 ft. (1,829 m)
Altimeter29.99 in.Hg (1016 mB)
Relative humidity44 %
Density altitude1,444 ft. (440 m)
Sea-level pressure101.5 kPa (1015 mB, 29.96 in.Hg)
Remarks Fully automated report
Automated weather observing station with precipitation discriminator
Flight conditions Visual Meteorological Conditions
Raw dataKMPO 211953Z AUTO 21009KT 10SM FEW060 26/13 A2999 RMK AO2 SLP146 T02610128
An error has occurred. This application may no longer respond until reloaded. Reload 🗙